createdAt,value
2022-12-31T00:00:20.079Z,7.43
2022-12-31T00:05:24.192Z,7.59
2022-12-31T00:10:27.621Z,7.52
2022-12-31T00:15:32.532Z,7.48
2022-12-31T00:20:36.508Z,7.51
2022-12-31T00:25:39.931Z,7.34
2022-12-31T00:30:44.737Z,7.25
2022-12-31T00:35:48.133Z,7.34
2022-12-31T00:40:51.633Z,7.42
2022-12-31T00:45:56.595Z,7.63
2022-12-31T00:51:00.714Z,7.62
2022-12-31T00:56:07.036Z,7.71
2022-12-31T01:01:13.115Z,7.76
2022-12-31T01:06:16.817Z,7.64
2022-12-31T01:11:22.734Z,7.44
2022-12-31T01:16:29.638Z,7.32
2022-12-31T01:21:33.953Z,7.34
2022-12-31T01:26:38.195Z,7.33
2022-12-31T01:31:43.094Z,7.36
2022-12-31T01:36:46.649Z,7.32
2022-12-31T01:41:51.030Z,7.33
2022-12-31T01:46:58.370Z,7.41
2022-12-31T01:52:08.880Z,7.35
2022-12-31T01:57:13.186Z,7.34
2022-12-31T02:02:18.576Z,7.32
2022-12-31T02:07:22.649Z,7.33
2022-12-31T02:12:26.102Z,7.24
2022-12-31T02:17:58.303Z,6.99
2022-12-31T02:23:34.617Z,6.96
2022-12-31T02:28:57.909Z,7.00
2022-12-31T02:34:08.946Z,7.07
2022-12-31T02:39:14.097Z,6.95
2022-12-31T02:44:24.369Z,6.89
2022-12-31T02:49:36.664Z,7.05
2022-12-31T02:54:49.804Z,7.08
2022-12-31T03:00:16.541Z,6.99
2022-12-31T03:05:26.419Z,6.91
2022-12-31T03:10:29.952Z,6.84
2022-12-31T03:15:35.251Z,6.98
2022-12-31T03:20:58.910Z,6.94
2022-12-31T03:26:03.001Z,6.75
2022-12-31T03:31:07.223Z,6.53
2022-12-31T03:36:14.709Z,6.31
2022-12-31T03:41:18.119Z,6.28
2022-12-31T03:46:21.580Z,6.16
2022-12-31T03:51:26.483Z,5.95
2022-12-31T03:56:29.954Z,5.65
2022-12-31T04:01:33.495Z,5.22
2022-12-31T04:06:38.382Z,5.18
2022-12-31T04:11:42.120Z,5.13
2022-12-31T04:16:46.048Z,4.95
2022-12-31T04:21:51.288Z,4.98
2022-12-31T04:26:54.738Z,5.13
2022-12-31T04:31:58.123Z,5.14
2022-12-31T04:37:03.510Z,5.10
2022-12-31T04:42:07.040Z,4.88
2022-12-31T04:47:10.733Z,4.88
2022-12-31T04:52:15.883Z,4.77
2022-12-31T04:57:19.294Z,4.71
2022-12-31T05:02:22.795Z,4.84
2022-12-31T05:07:27.745Z,4.93
2022-12-31T05:12:31.195Z,4.94
2022-12-31T05:17:34.606Z,4.90
2022-12-31T05:22:39.443Z,4.48
2022-12-31T05:27:42.977Z,4.43
2022-12-31T05:32:47.416Z,4.40
2022-12-31T05:37:52.506Z,4.47
2022-12-31T05:42:56.254Z,4.37
2022-12-31T05:47:59.757Z,4.35
2022-12-31T05:53:04.599Z,4.44
2022-12-31T05:58:07.980Z,4.55
2022-12-31T06:03:12.031Z,4.61
2022-12-31T06:08:16.977Z,4.66
2022-12-31T06:13:20.374Z,4.70
2022-12-31T06:18:23.864Z,4.89
2022-12-31T06:23:28.762Z,5.24
2022-12-31T06:28:32.233Z,5.52
2022-12-31T06:33:36.592Z,5.58
2022-12-31T06:38:43.269Z,5.98
2022-12-31T06:43:47.193Z,6.27
2022-12-31T06:48:50.666Z,6.71
2022-12-31T06:53:55.498Z,7.38
2022-12-31T06:58:59.462Z,7.83
2022-12-31T07:04:14.154Z,8.17
2022-12-31T07:09:25.387Z,8.52
2022-12-31T07:14:37.552Z,8.56
2022-12-31T07:19:57.123Z,8.52
2022-12-31T07:25:03.635Z,8.60
2022-12-31T07:30:12.698Z,8.73
2022-12-31T07:35:23.189Z,8.92
2022-12-31T07:40:39.628Z,9.07
2022-12-31T07:45:49.536Z,9.22
2022-12-31T07:50:55.400Z,9.48
2022-12-31T07:56:02.152Z,9.63
2022-12-31T08:01:06.692Z,9.90
2022-12-31T08:06:17.321Z,10.14
2022-12-31T08:11:29.844Z,10.33
2022-12-31T08:16:33.880Z,10.58
2022-12-31T08:21:47.620Z,10.84
2022-12-31T08:27:03.254Z,11.14
2022-12-31T08:32:14.467Z,11.34
2022-12-31T08:37:28.763Z,11.63
2022-12-31T08:42:41.399Z,12.07
2022-12-31T08:47:57.983Z,12.33
2022-12-31T08:53:03.783Z,12.50
2022-12-31T08:58:21.680Z,12.76
2022-12-31T09:03:50.594Z,13.10
2022-12-31T09:09:02.733Z,13.67
2022-12-31T09:14:27.001Z,14.15
2022-12-31T09:19:30.452Z,14.36
2022-12-31T09:24:34.818Z,14.88
2022-12-31T09:29:56.743Z,15.56
2022-12-31T09:35:07.563Z,16.01
2022-12-31T09:40:41.860Z,16.02
2022-12-31T09:46:23.409Z,16.36
2022-12-31T09:51:33.848Z,16.65
2022-12-31T09:56:38.458Z,16.81
2022-12-31T10:01:51.854Z,17.18
2022-12-31T10:07:09.567Z,17.17
2022-12-31T10:12:49.186Z,17.72
2022-12-31T10:18:05.228Z,17.51
2022-12-31T10:23:35.109Z,17.90
2022-12-31T10:28:50.351Z,18.03
2022-12-31T10:34:07.508Z,18.20
2022-12-31T10:39:25.243Z,18.52
2022-12-31T10:45:22.096Z,18.36
2022-12-31T10:50:55.366Z,18.43
2022-12-31T10:56:39.822Z,18.97
2022-12-31T11:01:50.055Z,18.95
2022-12-31T11:07:30.658Z,19.09
2022-12-31T11:13:12.866Z,19.07
2022-12-31T11:18:27.196Z,18.79
2022-12-31T11:29:05.712Z,19.07
2022-12-31T14:30:47.185Z,13.96
2022-12-31T14:36:14.195Z,13.63
2022-12-31T14:41:33.297Z,13.32
2022-12-31T14:46:48.904Z,13.02
2022-12-31T14:51:52.633Z,12.66
2022-12-31T14:56:56.109Z,12.21
2022-12-31T15:02:01.044Z,11.90
2022-12-31T15:07:13.185Z,11.84
2022-12-31T15:12:30.453Z,11.58
2022-12-31T15:17:49.489Z,11.02
2022-12-31T15:22:54.403Z,10.74
2022-12-31T15:28:00.325Z,10.76
2022-12-31T15:33:10.122Z,10.49
2022-12-31T15:38:32.805Z,10.20
2022-12-31T15:43:42.667Z,10.10
2022-12-31T15:48:56.552Z,9.95
2022-12-31T15:54:01.486Z,9.73
2022-12-31T15:59:12.643Z,9.46
2022-12-31T16:04:21.196Z,9.40
2022-12-31T16:09:27.257Z,9.13
2022-12-31T16:14:37.230Z,9.03
2022-12-31T16:19:46.259Z,9.04
2022-12-31T16:25:29.043Z,8.91
2022-12-31T16:30:22.534Z,8.81
2022-12-31T16:35:29.897Z,8.47
2022-12-31T16:40:33.338Z,8.40
2022-12-31T16:45:38.792Z,8.37
2022-12-31T16:50:46.711Z,8.31
2022-12-31T16:55:56.465Z,7.90
2022-12-31T17:01:09.048Z,7.54
2022-12-31T17:06:18.226Z,7.63
2022-12-31T17:11:25.799Z,7.70
2022-12-31T17:16:29.429Z,7.48
2022-12-31T17:21:35.068Z,7.50
2022-12-31T17:26:39.993Z,7.31
2022-12-31T17:32:00.123Z,7.27
2022-12-31T17:37:18.474Z,7.35
2022-12-31T17:42:32.096Z,7.37
2022-12-31T17:47:37.855Z,7.46
2022-12-31T17:52:42.708Z,6.96
2022-12-31T17:57:51.921Z,6.73
2022-12-31T18:02:55.475Z,6.59
2022-12-31T18:08:00.685Z,6.37
2022-12-31T18:13:05.965Z,6.07
2022-12-31T18:18:24.468Z,6.23
2022-12-31T18:23:32.572Z,6.58
2022-12-31T18:28:36.261Z,6.39
2022-12-31T18:33:39.634Z,5.92
2022-12-31T18:38:44.747Z,6.01
2022-12-31T18:43:48.947Z,6.09
2022-12-31T18:48:52.588Z,6.31
2022-12-31T18:53:57.833Z,6.38
2022-12-31T18:59:02.645Z,6.28
2022-12-31T19:04:13.690Z,6.24
2022-12-31T19:09:44.114Z,6.11
2022-12-31T19:14:42.270Z,6.07
2022-12-31T19:19:45.695Z,6.05
2022-12-31T19:24:50.488Z,5.75
2022-12-31T19:29:53.863Z,5.80
2022-12-31T19:34:57.474Z,5.93
2022-12-31T19:40:02.424Z,6.07
2022-12-31T19:45:07.923Z,6.17
2022-12-31T19:50:16.693Z,5.89
2022-12-31T19:55:25.143Z,5.88
2022-12-31T20:00:28.598Z,6.23
2022-12-31T20:05:32.061Z,6.40
2022-12-31T20:10:38.004Z,6.13
2022-12-31T20:15:47.799Z,5.90
2022-12-31T20:20:55.768Z,6.23
2022-12-31T20:26:01.688Z,6.31
2022-12-31T20:31:07.148Z,6.64
2022-12-31T20:36:14.182Z,6.68
2022-12-31T20:41:20.633Z,6.73
2022-12-31T20:46:25.975Z,6.51
2022-12-31T20:51:31.287Z,6.29
2022-12-31T20:56:38.533Z,6.10
2022-12-31T21:02:19.353Z,6.43
2022-12-31T21:07:05.795Z,6.48
2022-12-31T21:12:30.110Z,6.32
2022-12-31T21:17:33.884Z,6.16
2022-12-31T21:22:37.624Z,6.39
2022-12-31T21:27:42.450Z,6.42
2022-12-31T21:32:46.265Z,6.22
2022-12-31T21:37:58.119Z,6.34
2022-12-31T21:43:05.194Z,6.37
2022-12-31T21:48:25.168Z,6.28
2022-12-31T21:53:36.302Z,6.21
2022-12-31T21:58:44.009Z,6.10
2022-12-31T22:03:47.960Z,6.29
2022-12-31T22:08:53.262Z,6.46
2022-12-31T22:13:58.750Z,6.76
2022-12-31T22:19:02.215Z,7.00
2022-12-31T22:24:05.900Z,7.00
2022-12-31T22:29:10.796Z,7.04
2022-12-31T22:34:14.445Z,6.82
2022-12-31T22:39:43.875Z,6.54
2022-12-31T22:44:42.765Z,6.47
2022-12-31T22:49:46.687Z,6.63
2022-12-31T22:54:50.165Z,6.54
2022-12-31T22:59:55.066Z,6.48
2022-12-31T23:05:15.931Z,6.52
2022-12-31T23:10:51.790Z,6.57
2022-12-31T23:16:14.188Z,6.54
2022-12-31T23:21:34.848Z,6.49
2022-12-31T23:26:38.277Z,6.64
2022-12-31T23:31:43.176Z,6.83
2022-12-31T23:36:46.647Z,6.90
2022-12-31T23:41:50.081Z,6.93
2022-12-31T23:46:55.349Z,6.92
2022-12-31T23:51:59.284Z,6.97
2022-12-31T23:57:02.699Z,6.70
